sensor_id;sensor_type;location;lat;lon;timestamp;temperature;humidity
7842;DHT22;3966;51.052;13.820;2023-04-16T00:02:09;7.50;99.90
7842;DHT22;3966;51.052;13.820;2023-04-16T00:04:35;7.50;99.90
7842;DHT22;3966;51.052;13.820;2023-04-16T00:07:01;7.50;99.90
7842;DHT22;3966;51.052;13.820;2023-04-16T00:09:26;7.40;99.90
7842;DHT22;3966;51.052;13.820;2023-04-16T00:11:52;7.40;99.90
7842;DHT22;3966;51.052;13.820;2023-04-16T00:14:18;7.30;99.90
7842;DHT22;3966;51.052;13.820;2023-04-16T00:16:43;7.30;99.90
7842;DHT22;3966;51.052;13.820;2023-04-16T00:19:09;7.20;99.90
7842;DHT22;3966;51.052;13.820;2023-04-16T00:21:34;7.20;99.90
7842;DHT22;3966;51.052;13.820;2023-04-16T00:24:00;7.20;99.90
7842;DHT22;3966;51.052;13.820;2023-04-16T00:26:26;7.20;99.90
7842;DHT22;3966;51.052;13.820;2023-04-16T00:28:51;7.10;99.90
7842;DHT22;3966;51.052;13.820;2023-04-16T00:31:17;7.10;99.90
7842;DHT22;3966;51.052;13.820;2023-04-16T00:33:43;7.00;99.90
7842;DHT22;3966;51.052;13.820;2023-04-16T00:36:08;7.00;99.90
7842;DHT22;3966;51.052;13.820;2023-04-16T00:38:34;6.90;99.90
7842;DHT22;3966;51.052;13.820;2023-04-16T00:41:00;6.90;99.90
7842;DHT22;3966;51.052;13.820;2023-04-16T00:43:26;6.90;99.90
7842;DHT22;3966;51.052;13.820;2023-04-16T00:45:52;6.90;99.90
7842;DHT22;3966;51.052;13.820;2023-04-16T00:48:19;6.90;99.90
7842;DHT22;3966;51.052;13.820;2023-04-16T00:50:45;6.90;99.90
7842;DHT22;3966;51.052;13.820;2023-04-16T00:53:12;6.90;99.90
7842;DHT22;3966;51.052;13.820;2023-04-16T00:55:38;6.80;99.90
7842;DHT22;3966;51.052;13.820;2023-04-16T00:58:05;6.70;99.90
7842;DHT22;3966;51.052;13.820;2023-04-16T01:00:31;6.70;99.90
7842;DHT22;3966;51.052;13.820;2023-04-16T01:02:58;6.70;99.90
7842;DHT22;3966;51.052;13.820;2023-04-16T01:05:24;6.70;99.90
7842;DHT22;3966;51.052;13.820;2023-04-16T01:07:50;6.70;99.90
7842;DHT22;3966;51.052;13.820;2023-04-16T01:10:16;6.60;99.90
7842;DHT22;3966;51.052;13.820;2023-04-16T01:12:42;6.60;99.90
7842;DHT22;3966;51.052;13.820;2023-04-16T01:15:07;6.60;99.90
7842;DHT22;3966;51.052;13.820;2023-04-16T01:17:33;6.60;99.90
7842;DHT22;3966;51.052;13.820;2023-04-16T01:19:59;6.60;99.90
7842;DHT22;3966;51.052;13.820;2023-04-16T01:22:26;6.60;99.90
7842;DHT22;3966;51.052;13.820;2023-04-16T01:24:52;6.60;99.90
7842;DHT22;3966;51.052;13.820;2023-04-16T01:27:18;6.50;99.90
7842;DHT22;3966;51.052;13.820;2023-04-16T01:29:43;6.50;99.90
7842;DHT22;3966;51.052;13.820;2023-04-16T01:32:09;6.50;99.90
7842;DHT22;3966;51.052;13.820;2023-04-16T01:34:35;6.50;99.90
7842;DHT22;3966;51.052;13.820;2023-04-16T01:37:01;6.50;99.90
7842;DHT22;3966;51.052;13.820;2023-04-16T01:39:27;6.50;99.90
7842;DHT22;3966;51.052;13.820;2023-04-16T01:41:53;6.50;99.90
7842;DHT22;3966;51.052;13.820;2023-04-16T01:44:18;6.50;99.90
7842;DHT22;3966;51.052;13.820;2023-04-16T01:46:44;6.50;99.90
7842;DHT22;3966;51.052;13.820;2023-04-16T01:49:10;6.50;99.90
7842;DHT22;3966;51.052;13.820;2023-04-16T01:51:36;6.40;99.90
7842;DHT22;3966;51.052;13.820;2023-04-16T01:54:01;6.30;99.90
7842;DHT22;3966;51.052;13.820;2023-04-16T01:56:27;6.30;99.90
7842;DHT22;3966;51.052;13.820;2023-04-16T01:58:53;6.30;99.90
7842;DHT22;3966;51.052;13.820;2023-04-16T02:01:19;6.30;99.90
7842;DHT22;3966;51.052;13.820;2023-04-16T02:03:44;6.20;99.90
7842;DHT22;3966;51.052;13.820;2023-04-16T02:06:10;6.20;99.90
7842;DHT22;3966;51.052;13.820;2023-04-16T02:08:36;6.10;99.90
7842;DHT22;3966;51.052;13.820;2023-04-16T02:11:01;6.00;99.90
7842;DHT22;3966;51.052;13.820;2023-04-16T02:13:27;6.00;99.90
7842;DHT22;3966;51.052;13.820;2023-04-16T02:15:52;5.90;99.90
7842;DHT22;3966;51.052;13.820;2023-04-16T02:18:18;5.90;99.90
7842;DHT22;3966;51.052;13.820;2023-04-16T02:20:46;5.90;99.90
7842;DHT22;3966;51.052;13.820;2023-04-16T02:23:12;5.90;99.90
7842;DHT22;3966;51.052;13.820;2023-04-16T02:25:42;5.90;99.90
7842;DHT22;3966;51.052;13.820;2023-04-16T02:28:10;5.90;99.90
7842;DHT22;3966;51.052;13.820;2023-04-16T02:30:36;5.90;99.90
7842;DHT22;3966;51.052;13.820;2023-04-16T02:33:03;5.80;99.90
7842;DHT22;3966;51.052;13.820;2023-04-16T02:35:30;5.80;99.90
7842;DHT22;3966;51.052;13.820;2023-04-16T02:37:57;5.70;99.90
7842;DHT22;3966;51.052;13.820;2023-04-16T02:40:23;5.50;99.90
7842;DHT22;3966;51.052;13.820;2023-04-16T02:42:49;5.50;99.90
7842;DHT22;3966;51.052;13.820;2023-04-16T02:45:14;5.50;99.90
7842;DHT22;3966;51.052;13.820;2023-04-16T02:47:40;5.50;99.90
7842;DHT22;3966;51.052;13.820;2023-04-16T02:50:06;5.60;99.90
7842;DHT22;3966;51.052;13.820;2023-04-16T02:52:32;5.60;99.90
7842;DHT22;3966;51.052;13.820;2023-04-16T02:54:58;5.50;99.90
7842;DHT22;3966;51.052;13.820;2023-04-16T02:57:24;5.50;99.90
7842;DHT22;3966;51.052;13.820;2023-04-16T02:59:49;5.50;99.90
7842;DHT22;3966;51.052;13.820;2023-04-16T03:02:15;5.50;99.90
7842;DHT22;3966;51.052;13.820;2023-04-16T03:04:41;5.50;99.90
7842;DHT22;3966;51.052;13.820;2023-04-16T03:07:07;5.50;99.90
7842;DHT22;3966;51.052;13.820;2023-04-16T03:09:34;5.50;99.90
7842;DHT22;3966;51.052;13.820;2023-04-16T03:12:00;5.40;99.90
7842;DHT22;3966;51.052;13.820;2023-04-16T03:14:27;5.40;99.90
7842;DHT22;3966;51.052;13.820;2023-04-16T03:16:52;5.40;99.90
7842;DHT22;3966;51.052;13.820;2023-04-16T03:19:18;5.40;99.90
7842;DHT22;3966;51.052;13.820;2023-04-16T03:21:44;5.30;99.90
7842;DHT22;3966;51.052;13.820;2023-04-16T03:24:09;5.30;99.90
7842;DHT22;3966;51.052;13.820;2023-04-16T03:26:35;5.30;99.90
7842;DHT22;3966;51.052;13.820;2023-04-16T03:29:01;5.20;99.90
7842;DHT22;3966;51.052;13.820;2023-04-16T03:31:27;5.20;99.90
7842;DHT22;3966;51.052;13.820;2023-04-16T03:33:53;5.10;99.90
7842;DHT22;3966;51.052;13.820;2023-04-16T03:36:18;5.00;99.90
7842;DHT22;3966;51.052;13.820;2023-04-16T03:38:44;5.00;99.90
7842;DHT22;3966;51.052;13.820;2023-04-16T03:41:10;4.90;99.90
7842;DHT22;3966;51.052;13.820;2023-04-16T03:43:35;4.90;99.90
7842;DHT22;3966;51.052;13.820;2023-04-16T03:46:01;4.90;99.90
7842;DHT22;3966;51.052;13.820;2023-04-16T03:48:27;4.90;99.90
7842;DHT22;3966;51.052;13.820;2023-04-16T03:50:52;4.90;99.90
7842;DHT22;3966;51.052;13.820;2023-04-16T03:53:18;4.90;99.90
7842;DHT22;3966;51.052;13.820;2023-04-16T03:55:43;4.90;99.90
7842;DHT22;3966;51.052;13.820;2023-04-16T03:58:09;4.80;99.90
7842;DHT22;3966;51.052;13.820;2023-04-16T04:00:35;4.80;99.90
7842;DHT22;3966;51.052;13.820;2023-04-16T04:03:00;4.90;99.90
7842;DHT22;3966;51.052;13.820;2023-04-16T04:05:26;4.80;99.90
7842;DHT22;3966;51.052;13.820;2023-04-16T04:07:52;4.70;99.90
7842;DHT22;3966;51.052;13.820;2023-04-16T04:10:18;4.70;99.90
7842;DHT22;3966;51.052;13.820;2023-04-16T04:12:43;4.60;99.90
7842;DHT22;3966;51.052;13.820;2023-04-16T04:15:10;4.70;99.90
7842;DHT22;3966;51.052;13.820;2023-04-16T04:17:36;4.60;99.90
7842;DHT22;3966;51.052;13.820;2023-04-16T04:20:01;4.60;99.90
7842;DHT22;3966;51.052;13.820;2023-04-16T04:22:27;4.60;99.90
7842;DHT22;3966;51.052;13.820;2023-04-16T04:24:53;4.60;99.90
7842;DHT22;3966;51.052;13.820;2023-04-16T04:27:18;4.60;99.90
7842;DHT22;3966;51.052;13.820;2023-04-16T04:29:44;4.60;99.90
7842;DHT22;3966;51.052;13.820;2023-04-16T04:32:09;4.60;99.90
7842;DHT22;3966;51.052;13.820;2023-04-16T04:34:35;4.60;99.90
7842;DHT22;3966;51.052;13.820;2023-04-16T04:37:01;4.60;99.90
7842;DHT22;3966;51.052;13.820;2023-04-16T04:39:26;4.70;99.90
7842;DHT22;3966;51.052;13.820;2023-04-16T04:41:52;4.70;99.90
7842;DHT22;3966;51.052;13.820;2023-04-16T04:44:18;4.70;99.90
7842;DHT22;3966;51.052;13.820;2023-04-16T04:46:43;4.70;99.90
7842;DHT22;3966;51.052;13.820;2023-04-16T04:49:09;4.80;99.90
7842;DHT22;3966;51.052;13.820;2023-04-16T04:51:35;4.80;99.90
7842;DHT22;3966;51.052;13.820;2023-04-16T04:54:00;4.50;99.90
7842;DHT22;3966;51.052;13.820;2023-04-16T04:56:26;4.50;99.90
7842;DHT22;3966;51.052;13.820;2023-04-16T04:58:51;4.60;99.90
7842;DHT22;3966;51.052;13.820;2023-04-16T05:01:17;4.60;99.90
7842;DHT22;3966;51.052;13.820;2023-04-16T05:03:43;4.70;99.90
7842;DHT22;3966;51.052;13.820;2023-04-16T05:06:08;4.70;99.90
7842;DHT22;3966;51.052;13.820;2023-04-16T05:08:34;4.80;99.90
7842;DHT22;3966;51.052;13.820;2023-04-16T05:11:00;4.80;99.90
7842;DHT22;3966;51.052;13.820;2023-04-16T05:13:25;4.70;99.90
7842;DHT22;3966;51.052;13.820;2023-04-16T05:15:51;4.80;99.90
7842;DHT22;3966;51.052;13.820;2023-04-16T05:18:17;4.80;99.90
7842;DHT22;3966;51.052;13.820;2023-04-16T05:20:42;4.80;99.90
7842;DHT22;3966;51.052;13.820;2023-04-16T05:23:08;4.90;99.90
7842;DHT22;3966;51.052;13.820;2023-04-16T05:25:34;4.80;99.90
7842;DHT22;3966;51.052;13.820;2023-04-16T05:27:59;4.90;99.90
7842;DHT22;3966;51.052;13.820;2023-04-16T05:30:25;4.80;99.90
7842;DHT22;3966;51.052;13.820;2023-04-16T05:32:51;4.80;99.90
7842;DHT22;3966;51.052;13.820;2023-04-16T05:35:16;4.90;99.90
7842;DHT22;3966;51.052;13.820;2023-04-16T05:37:42;4.90;99.90
7842;DHT22;3966;51.052;13.820;2023-04-16T05:40:08;4.90;99.90
7842;DHT22;3966;51.052;13.820;2023-04-16T05:42:34;4.90;99.90
7842;DHT22;3966;51.052;13.820;2023-04-16T05:45:01;4.80;99.90
7842;DHT22;3966;51.052;13.820;2023-04-16T05:47:28;4.80;99.90
7842;DHT22;3966;51.052;13.820;2023-04-16T05:49:54;4.80;99.90
7842;DHT22;3966;51.052;13.820;2023-04-16T05:52:19;4.80;99.90
7842;DHT22;3966;51.052;13.820;2023-04-16T05:54:45;4.70;99.90
7842;DHT22;3966;51.052;13.820;2023-04-16T05:57:12;4.70;99.90
7842;DHT22;3966;51.052;13.820;2023-04-16T05:59:38;4.90;99.90
7842;DHT22;3966;51.052;13.820;2023-04-16T06:02:04;4.90;99.90
7842;DHT22;3966;51.052;13.820;2023-04-16T06:04:29;4.90;99.90
7842;DHT22;3966;51.052;13.820;2023-04-16T06:06:55;5.00;99.90
7842;DHT22;3966;51.052;13.820;2023-04-16T06:09:21;5.00;99.90
7842;DHT22;3966;51.052;13.820;2023-04-16T06:11:47;5.10;99.90
7842;DHT22;3966;51.052;13.820;2023-04-16T06:14:13;5.10;99.90
7842;DHT22;3966;51.052;13.820;2023-04-16T06:16:39;5.20;99.90
7842;DHT22;3966;51.052;13.820;2023-04-16T06:19:05;5.30;99.90
7842;DHT22;3966;51.052;13.820;2023-04-16T06:21:30;5.50;99.90
7842;DHT22;3966;51.052;13.820;2023-04-16T06:23:56;5.50;99.90
7842;DHT22;3966;51.052;13.820;2023-04-16T06:26:22;5.60;99.90
7842;DHT22;3966;51.052;13.820;2023-04-16T06:28:48;5.70;99.90
7842;DHT22;3966;51.052;13.820;2023-04-16T06:31:14;5.70;99.90
7842;DHT22;3966;51.052;13.820;2023-04-16T06:33:39;5.80;99.90
7842;DHT22;3966;51.052;13.820;2023-04-16T06:36:05;5.90;99.90
7842;DHT22;3966;51.052;13.820;2023-04-16T06:38:31;6.00;99.90
7842;DHT22;3966;51.052;13.820;2023-04-16T06:40:56;6.10;99.90
7842;DHT22;3966;51.052;13.820;2023-04-16T06:43:23;6.20;99.90
7842;DHT22;3966;51.052;13.820;2023-04-16T06:45:49;6.40;99.90
7842;DHT22;3966;51.052;13.820;2023-04-16T06:48:15;6.50;99.90
7842;DHT22;3966;51.052;13.820;2023-04-16T06:50:40;6.60;99.90
7842;DHT22;3966;51.052;13.820;2023-04-16T06:53:06;6.70;99.90
7842;DHT22;3966;51.052;13.820;2023-04-16T06:55:32;6.80;99.90
7842;DHT22;3966;51.052;13.820;2023-04-16T06:57:57;6.90;99.90
7842;DHT22;3966;51.052;13.820;2023-04-16T07:00:23;7.10;99.90
7842;DHT22;3966;51.052;13.820;2023-04-16T07:02:49;7.20;99.90
7842;DHT22;3966;51.052;13.820;2023-04-16T07:05:14;7.30;99.90
7842;DHT22;3966;51.052;13.820;2023-04-16T07:07:40;7.30;99.90
7842;DHT22;3966;51.052;13.820;2023-04-16T07:10:06;7.40;99.90
7842;DHT22;3966;51.052;13.820;2023-04-16T07:12:32;7.40;99.90
7842;DHT22;3966;51.052;13.820;2023-04-16T07:14:58;7.50;99.90
7842;DHT22;3966;51.052;13.820;2023-04-16T07:17:24;7.60;99.90
7842;DHT22;3966;51.052;13.820;2023-04-16T07:19:50;7.70;99.90
7842;DHT22;3966;51.052;13.820;2023-04-16T07:22:16;7.80;99.90
7842;DHT22;3966;51.052;13.820;2023-04-16T07:24:42;7.90;99.90
7842;DHT22;3966;51.052;13.820;2023-04-16T07:27:07;8.10;99.90
7842;DHT22;3966;51.052;13.820;2023-04-16T07:29:33;8.10;99.90
7842;DHT22;3966;51.052;13.820;2023-04-16T07:31:59;8.20;99.90
7842;DHT22;3966;51.052;13.820;2023-04-16T07:34:24;8.10;99.90
7842;DHT22;3966;51.052;13.820;2023-04-16T07:36:50;8.00;99.90
7842;DHT22;3966;51.052;13.820;2023-04-16T07:39:16;8.10;99.90
7842;DHT22;3966;51.052;13.820;2023-04-16T07:41:42;8.10;99.90
7842;DHT22;3966;51.052;13.820;2023-04-16T07:44:08;8.30;99.90
7842;DHT22;3966;51.052;13.820;2023-04-16T07:46:34;8.40;99.90
7842;DHT22;3966;51.052;13.820;2023-04-16T07:48:59;8.60;99.90
7842;DHT22;3966;51.052;13.820;2023-04-16T07:51:25;8.70;99.90
7842;DHT22;3966;51.052;13.820;2023-04-16T07:53:51;8.90;99.90
7842;DHT22;3966;51.052;13.820;2023-04-16T07:56:17;9.00;99.90
7842;DHT22;3966;51.052;13.820;2023-04-16T07:58:42;9.10;99.90
7842;DHT22;3966;51.052;13.820;2023-04-16T08:01:08;9.20;99.90
7842;DHT22;3966;51.052;13.820;2023-04-16T08:03:36;9.10;99.90
7842;DHT22;3966;51.052;13.820;2023-04-16T08:06:02;9.20;99.90
7842;DHT22;3966;51.052;13.820;2023-04-16T08:08:28;9.30;99.90
7842;DHT22;3966;51.052;13.820;2023-04-16T08:10:54;9.20;99.90
7842;DHT22;3966;51.052;13.820;2023-04-16T08:13:23;9.20;99.90
7842;DHT22;3966;51.052;13.820;2023-04-16T08:15:49;9.20;99.90
7842;DHT22;3966;51.052;13.820;2023-04-16T08:18:14;9.20;99.90
7842;DHT22;3966;51.052;13.820;2023-04-16T08:20:41;9.30;99.90
7842;DHT22;3966;51.052;13.820;2023-04-16T08:23:07;9.60;99.90
7842;DHT22;3966;51.052;13.820;2023-04-16T08:25:32;9.80;99.90
7842;DHT22;3966;51.052;13.820;2023-04-16T08:27:58;10.00;99.90
7842;DHT22;3966;51.052;13.820;2023-04-16T08:30:24;10.20;99.90
7842;DHT22;3966;51.052;13.820;2023-04-16T08:32:50;10.30;99.90
7842;DHT22;3966;51.052;13.820;2023-04-16T08:35:16;10.30;99.90
7842;DHT22;3966;51.052;13.820;2023-04-16T08:37:42;10.20;99.90
7842;DHT22;3966;51.052;13.820;2023-04-16T08:40:08;10.30;99.90
7842;DHT22;3966;51.052;13.820;2023-04-16T08:42:39;10.10;99.90
7842;DHT22;3966;51.052;13.820;2023-04-16T08:45:17;10.30;99.90
7842;DHT22;3966;51.052;13.820;2023-04-16T08:47:50;10.20;99.90
7842;DHT22;3966;51.052;13.820;2023-04-16T08:50:26;10.40;99.90
7842;DHT22;3966;51.052;13.820;2023-04-16T08:52:58;10.40;99.90
7842;DHT22;3966;51.052;13.820;2023-04-16T08:55:47;10.50;99.90
7842;DHT22;3966;51.052;13.820;2023-04-16T08:58:24;10.70;99.90
7842;DHT22;3966;51.052;13.820;2023-04-16T09:00:54;11.10;99.90
7842;DHT22;3966;51.052;13.820;2023-04-16T09:03:20;11.20;99.90
7842;DHT22;3966;51.052;13.820;2023-04-16T09:05:46;11.20;99.90
7842;DHT22;3966;51.052;13.820;2023-04-16T09:08:13;11.30;99.90
7842;DHT22;3966;51.052;13.820;2023-04-16T09:10:40;11.30;99.90
7842;DHT22;3966;51.052;13.820;2023-04-16T09:13:05;11.60;99.90
7842;DHT22;3966;51.052;13.820;2023-04-16T09:15:34;11.30;99.90
7842;DHT22;3966;51.052;13.820;2023-04-16T09:18:04;11.60;99.90
7842;DHT22;3966;51.052;13.820;2023-04-16T09:20:30;11.70;99.90
7842;DHT22;3966;51.052;13.820;2023-04-16T09:22:56;11.60;99.90
7842;DHT22;3966;51.052;13.820;2023-04-16T09:25:22;11.70;99.90
7842;DHT22;3966;51.052;13.820;2023-04-16T09:27:49;11.60;99.90
7842;DHT22;3966;51.052;13.820;2023-04-16T09:30:26;11.70;99.90
7842;DHT22;3966;51.052;13.820;2023-04-16T09:35:52;12.00;99.90
7842;DHT22;3966;51.052;13.820;2023-04-16T09:38:18;12.00;99.90
7842;DHT22;3966;51.052;13.820;2023-04-16T09:40:45;11.90;99.90
7842;DHT22;3966;51.052;13.820;2023-04-16T09:43:16;12.10;99.90
7842;DHT22;3966;51.052;13.820;2023-04-16T09:45:49;12.40;99.90
7842;DHT22;3966;51.052;13.820;2023-04-16T09:48:15;12.40;99.90
7842;DHT22;3966;51.052;13.820;2023-04-16T09:50:52;12.50;99.90
7842;DHT22;3966;51.052;13.820;2023-04-16T09:53:28;12.40;99.90
7842;DHT22;3966;51.052;13.820;2023-04-16T09:56:04;12.40;99.90
7842;DHT22;3966;51.052;13.820;2023-04-16T09:58:30;12.50;99.90
7842;DHT22;3966;51.052;13.820;2023-04-16T10:01:05;12.60;99.90
7842;DHT22;3966;51.052;13.820;2023-04-16T10:03:31;12.50;99.90
7842;DHT22;3966;51.052;13.820;2023-04-16T10:06:17;12.40;99.90
7842;DHT22;3966;51.052;13.820;2023-04-16T10:08:47;12.30;99.90
7842;DHT22;3966;51.052;13.820;2023-04-16T10:11:14;12.10;99.90
7842;DHT22;3966;51.052;13.820;2023-04-16T10:13:40;12.40;99.90
7842;DHT22;3966;51.052;13.820;2023-04-16T10:16:06;12.50;99.90
7842;DHT22;3966;51.052;13.820;2023-04-16T10:18:37;12.60;99.90
7842;DHT22;3966;51.052;13.820;2023-04-16T10:21:03;12.60;99.90
7842;DHT22;3966;51.052;13.820;2023-04-16T10:23:30;12.60;99.90
7842;DHT22;3966;51.052;13.820;2023-04-16T10:25:57;12.60;99.90
7842;DHT22;3966;51.052;13.820;2023-04-16T10:28:24;12.40;99.90
7842;DHT22;3966;51.052;13.820;2023-04-16T10:30:51;12.60;99.90
7842;DHT22;3966;51.052;13.820;2023-04-16T10:33:21;12.70;99.90
7842;DHT22;3966;51.052;13.820;2023-04-16T10:35:49;12.80;99.90
7842;DHT22;3966;51.052;13.820;2023-04-16T10:38:23;12.90;99.90
7842;DHT22;3966;51.052;13.820;2023-04-16T10:40:49;13.00;99.90
7842;DHT22;3966;51.052;13.820;2023-04-16T10:43:18;12.90;99.90
7842;DHT22;3966;51.052;13.820;2023-04-16T10:45:46;12.70;99.90
7842;DHT22;3966;51.052;13.820;2023-04-16T10:48:12;13.10;99.90
7842;DHT22;3966;51.052;13.820;2023-04-16T10:50:39;13.00;99.90
7842;DHT22;3966;51.052;13.820;2023-04-16T10:53:26;13.00;99.90
7842;DHT22;3966;51.052;13.820;2023-04-16T10:56:09;12.90;99.90
7842;DHT22;3966;51.052;13.820;2023-04-16T10:58:37;13.10;99.90
7842;DHT22;3966;51.052;13.820;2023-04-16T11:01:13;13.40;99.90
7842;DHT22;3966;51.052;13.820;2023-04-16T11:15:03;13.90;99.90
7842;DHT22;3966;51.052;13.820;2023-04-16T11:17:32;13.70;99.90
7842;DHT22;3966;51.052;13.820;2023-04-16T11:20:00;13.50;99.90
7842;DHT22;3966;51.052;13.820;2023-04-16T11:22:26;13.50;99.90
7842;DHT22;3966;51.052;13.820;2023-04-16T11:24:55;13.70;99.90
7842;DHT22;3966;51.052;13.820;2023-04-16T11:27:22;13.50;99.90
7842;DHT22;3966;51.052;13.820;2023-04-16T11:29:59;13.70;99.90
7842;DHT22;3966;51.052;13.820;2023-04-16T11:32:25;13.80;99.90
7842;DHT22;3966;51.052;13.820;2023-04-16T11:34:51;13.70;99.90
7842;DHT22;3966;51.052;13.820;2023-04-16T11:37:21;13.60;99.90
7842;DHT22;3966;51.052;13.820;2023-04-16T11:39:55;13.60;99.90
7842;DHT22;3966;51.052;13.820;2023-04-16T11:42:21;13.80;99.90
7842;DHT22;3966;51.052;13.820;2023-04-16T11:44:54;13.90;99.90
7842;DHT22;3966;51.052;13.820;2023-04-16T11:47:24;13.80;99.90
7842;DHT22;3966;51.052;13.820;2023-04-16T11:49:50;13.70;99.90
7842;DHT22;3966;51.052;13.820;2023-04-16T11:52:30;13.80;99.90
7842;DHT22;3966;51.052;13.820;2023-04-16T11:54:56;13.70;99.90
7842;DHT22;3966;51.052;13.820;2023-04-16T11:57:30;13.80;99.90
7842;DHT22;3966;51.052;13.820;2023-04-16T11:59:56;13.80;99.90
7842;DHT22;3966;51.052;13.820;2023-04-16T12:05:06;13.70;99.90
7842;DHT22;3966;51.052;13.820;2023-04-16T12:07:43;14.00;99.90
7842;DHT22;3966;51.052;13.820;2023-04-16T12:10:12;14.10;99.90
7842;DHT22;3966;51.052;13.820;2023-04-16T12:12:38;14.10;99.90
7842;DHT22;3966;51.052;13.820;2023-04-16T12:15:04;14.10;99.90
7842;DHT22;3966;51.052;13.820;2023-04-16T12:17:31;14.30;99.90
7842;DHT22;3966;51.052;13.820;2023-04-16T12:19:59;14.10;99.90
7842;DHT22;3966;51.052;13.820;2023-04-16T12:22:30;14.10;99.90
7842;DHT22;3966;51.052;13.820;2023-04-16T12:25:20;14.30;99.90
7842;DHT22;3966;51.052;13.820;2023-04-16T12:27:53;14.60;99.90
7842;DHT22;3966;51.052;13.820;2023-04-16T12:30:23;14.60;99.90
7842;DHT22;3966;51.052;13.820;2023-04-16T12:32:51;14.80;99.90
7842;DHT22;3966;51.052;13.820;2023-04-16T12:35:31;15.00;99.90
7842;DHT22;3966;51.052;13.820;2023-04-16T12:37:57;15.20;99.90
7842;DHT22;3966;51.052;13.820;2023-04-16T12:40:22;15.10;99.90
7842;DHT22;3966;51.052;13.820;2023-04-16T12:42:48;14.80;99.90
7842;DHT22;3966;51.052;13.820;2023-04-16T12:45:13;15.20;99.90
7842;DHT22;3966;51.052;13.820;2023-04-16T12:47:40;15.20;99.90
7842;DHT22;3966;51.052;13.820;2023-04-16T12:50:06;14.90;99.90
7842;DHT22;3966;51.052;13.820;2023-04-16T12:52:33;14.90;99.90
7842;DHT22;3966;51.052;13.820;2023-04-16T12:55:00;15.00;99.90
7842;DHT22;3966;51.052;13.820;2023-04-16T12:57:27;15.20;99.90
7842;DHT22;3966;51.052;13.820;2023-04-16T12:59:56;15.10;99.90
7842;DHT22;3966;51.052;13.820;2023-04-16T13:02:23;15.10;99.90
7842;DHT22;3966;51.052;13.820;2023-04-16T13:04:50;15.00;99.90
7842;DHT22;3966;51.052;13.820;2023-04-16T13:07:16;15.00;99.90
7842;DHT22;3966;51.052;13.820;2023-04-16T13:09:42;14.70;99.90
7842;DHT22;3966;51.052;13.820;2023-04-16T13:12:08;14.90;99.90
7842;DHT22;3966;51.052;13.820;2023-04-16T13:14:33;14.90;99.90
7842;DHT22;3966;51.052;13.820;2023-04-16T13:16:59;14.70;99.90
7842;DHT22;3966;51.052;13.820;2023-04-16T13:19:25;14.60;99.90
7842;DHT22;3966;51.052;13.820;2023-04-16T13:21:51;14.70;99.90
7842;DHT22;3966;51.052;13.820;2023-04-16T13:24:17;14.90;99.90
7842;DHT22;3966;51.052;13.820;2023-04-16T13:26:43;14.90;99.90
7842;DHT22;3966;51.052;13.820;2023-04-16T13:29:09;15.20;99.90
7842;DHT22;3966;51.052;13.820;2023-04-16T13:31:35;15.40;99.90
7842;DHT22;3966;51.052;13.820;2023-04-16T13:34:01;15.40;99.90
7842;DHT22;3966;51.052;13.820;2023-04-16T13:36:27;15.20;99.90
7842;DHT22;3966;51.052;13.820;2023-04-16T13:38:55;14.90;99.90
7842;DHT22;3966;51.052;13.820;2023-04-16T13:41:21;14.80;99.90
7842;DHT22;3966;51.052;13.820;2023-04-16T13:43:46;14.80;99.90
7842;DHT22;3966;51.052;13.820;2023-04-16T13:46:12;14.90;99.90
7842;DHT22;3966;51.052;13.820;2023-04-16T13:48:37;14.70;99.90
7842;DHT22;3966;51.052;13.820;2023-04-16T13:51:03;14.70;99.90
7842;DHT22;3966;51.052;13.820;2023-04-16T13:53:29;14.90;99.90
7842;DHT22;3966;51.052;13.820;2023-04-16T13:55:55;14.80;99.90
7842;DHT22;3966;51.052;13.820;2023-04-16T13:58:20;14.80;99.90
7842;DHT22;3966;51.052;13.820;2023-04-16T14:00:46;14.70;99.90
7842;DHT22;3966;51.052;13.820;2023-04-16T14:03:12;14.70;99.90
7842;DHT22;3966;51.052;13.820;2023-04-16T14:05:38;14.90;99.90
7842;DHT22;3966;51.052;13.820;2023-04-16T14:08:03;15.00;99.90
7842;DHT22;3966;51.052;13.820;2023-04-16T14:10:30;15.10;99.90
7842;DHT22;3966;51.052;13.820;2023-04-16T14:12:56;15.10;99.90
7842;DHT22;3966;51.052;13.820;2023-04-16T14:15:22;15.10;99.90
7842;DHT22;3966;51.052;13.820;2023-04-16T14:17:50;15.10;99.90
7842;DHT22;3966;51.052;13.820;2023-04-16T14:20:16;15.10;99.90
7842;DHT22;3966;51.052;13.820;2023-04-16T14:22:42;15.00;99.90
7842;DHT22;3966;51.052;13.820;2023-04-16T14:25:08;15.20;99.90
7842;DHT22;3966;51.052;13.820;2023-04-16T14:27:34;15.20;99.90
7842;DHT22;3966;51.052;13.820;2023-04-16T14:30:00;14.90;99.90
7842;DHT22;3966;51.052;13.820;2023-04-16T14:32:26;15.10;99.90
7842;DHT22;3966;51.052;13.820;2023-04-16T14:34:51;15.20;99.90
7842;DHT22;3966;51.052;13.820;2023-04-16T14:37:17;15.00;99.90
7842;DHT22;3966;51.052;13.820;2023-04-16T14:39:44;14.50;99.90
7842;DHT22;3966;51.052;13.820;2023-04-16T14:42:09;14.30;99.90
7842;DHT22;3966;51.052;13.820;2023-04-16T14:44:35;14.20;99.90
7842;DHT22;3966;51.052;13.820;2023-04-16T14:47:01;14.00;99.90
7842;DHT22;3966;51.052;13.820;2023-04-16T14:49:27;14.00;99.90
7842;DHT22;3966;51.052;13.820;2023-04-16T14:51:53;13.70;99.90
7842;DHT22;3966;51.052;13.820;2023-04-16T14:54:19;13.70;99.90
7842;DHT22;3966;51.052;13.820;2023-04-16T14:56:45;13.50;99.90
7842;DHT22;3966;51.052;13.820;2023-04-16T14:59:11;13.50;99.90
7842;DHT22;3966;51.052;13.820;2023-04-16T15:01:38;13.20;99.90
7842;DHT22;3966;51.052;13.820;2023-04-16T15:04:07;13.00;99.90
7842;DHT22;3966;51.052;13.820;2023-04-16T15:06:33;12.80;99.90
7842;DHT22;3966;51.052;13.820;2023-04-16T15:08:59;12.80;99.90
7842;DHT22;3966;51.052;13.820;2023-04-16T15:11:25;12.70;99.90
7842;DHT22;3966;51.052;13.820;2023-04-16T15:13:51;12.70;99.90
7842;DHT22;3966;51.052;13.820;2023-04-16T15:16:16;12.70;99.90
7842;DHT22;3966;51.052;13.820;2023-04-16T15:18:42;12.70;99.90
7842;DHT22;3966;51.052;13.820;2023-04-16T15:21:08;12.80;99.90
7842;DHT22;3966;51.052;13.820;2023-04-16T15:23:34;12.70;99.90
7842;DHT22;3966;51.052;13.820;2023-04-16T15:25:59;12.80;99.90
7842;DHT22;3966;51.052;13.820;2023-04-16T15:28:25;12.80;99.90
7842;DHT22;3966;51.052;13.820;2023-04-16T15:30:51;12.50;99.90
7842;DHT22;3966;51.052;13.820;2023-04-16T15:33:19;12.40;99.90
7842;DHT22;3966;51.052;13.820;2023-04-16T15:35:45;12.50;99.90
7842;DHT22;3966;51.052;13.820;2023-04-16T15:38:11;12.50;99.90
7842;DHT22;3966;51.052;13.820;2023-04-16T15:40:37;12.40;99.90
7842;DHT22;3966;51.052;13.820;2023-04-16T15:43:03;12.40;99.90
7842;DHT22;3966;51.052;13.820;2023-04-16T15:45:30;12.50;99.90
7842;DHT22;3966;51.052;13.820;2023-04-16T15:47:56;12.40;99.90
7842;DHT22;3966;51.052;13.820;2023-04-16T15:50:22;12.30;99.90
7842;DHT22;3966;51.052;13.820;2023-04-16T15:52:48;12.20;99.90
7842;DHT22;3966;51.052;13.820;2023-04-16T15:55:14;12.10;99.90
7842;DHT22;3966;51.052;13.820;2023-04-16T15:57:41;12.10;99.90
7842;DHT22;3966;51.052;13.820;2023-04-16T16:00:07;11.90;99.90
7842;DHT22;3966;51.052;13.820;2023-04-16T16:02:41;11.90;99.90
7842;DHT22;3966;51.052;13.820;2023-04-16T16:05:11;11.90;99.90
7842;DHT22;3966;51.052;13.820;2023-04-16T16:07:38;11.90;99.90
7842;DHT22;3966;51.052;13.820;2023-04-16T16:10:04;12.00;99.90